Aviation Digital Data Service (ADDS)

Output produced by METARs form (1028 UTC 07 December 2022)
found at http://aviationweather.gov/metar/data/
 
KFME 071019Z AUTO 00000KT 1 3/4SM OVC004 10/09 A3019 RMK AO1
KBWI 070954Z 00000KT 1SM R10/P6000FT BR OVC002 11/11 A3018 RMK AO2 SLP219 T01110106
KBWI 070908Z 0709/0812 13003KT 2SM BR OVC003 
     FM071400 16003KT 3SM -SHRA BR OVC004 
     FM071700 21004KT P6SM OVC008 
     FM072000 21003KT P6SM OVC010 
     FM072300 00000KT P6SM OVC008 
     FM080500 33003KT P6SM BKN025 
     FM080800 34004KT P6SM BKN050
       
KESN 071024Z AUTO 16005KT 2 1/2SM BR OVC001 13/12 A3023 RMK AO2 T01270121
KCGE 071015Z AUTO 00000KT 1/2SM BR OVC002 13/13 A3020 RMK A01
KSBY 070954Z AUTO 18007KT 10SM BKN009 BKN017 OVC028 17/16 A3021 RMK AO2 RAE15 CIG 006V013 SLP231 P0001 T01670156
KSBY 070559Z 0706/0806 18004KT P6SM -RA OVC012 
     TEMPO 0706/0708 BKN008 
     FM070900 21004KT 5SM -RA BR OVC006 
     FM071300 20005KT 5SM BR VCSH OVC006 
     FM071500 23006KT P6SM OVC010 
     FM080300 28003KT P6SM OVC008
       
KOXB 070953Z AUTO 20005KT 3SM -RA BR OVC003 13/13 A3023 RMK AO2 RAB08E25B50 SLP238 P0000 T01280128
KFDK 071020Z AUTO 00000KT 1/4SM FG OVC003 08/08 A3018 RMK AO2
KHGR 071006Z AUTO 06003KT 1/2SM FG VV003 07/06 A3016 RMK AO2 T00670061